This is the latest recevied weather packets stored in our database for station/object DH3PAE-6. If no packets are shown the sender has not sent any weather packets the latest 10 day(s).
| Time | Temp. | Humidity | Pressure | Rain* | Wind** | Luminosity | Snow |
|---|---|---|---|---|---|---|---|
| 1777380160 | 20° C | 42% | 1018.7 hPa | 0 mm | - | 761 W/m² | - |
| 1777377140 | 18.89° C | 39% | 1018.9 hPa | 0 mm | - | 830 W/m² | - |
| 1777372937 | 17.22° C | 49% | 1019.3 hPa | 0 mm | - | 664 W/m² | - |
| 1777372337 | 17.78° C | 56% | 1019.4 hPa | 0 mm | - | 664 W/m² | - |
| 1777369939 | 15.56° C | 50% | 1019.3 hPa | 0 mm | - | 671 W/m² | - |
| 1777364540 | 13.33° C | 55% | 1018.8 hPa | 0 mm | - | 429 W/m² | - |
| 1777362737 | 12.22° C | 60% | 1018.7 hPa | 0 mm | - | 482 W/m² | - |
| 1777361536 | 11.67° C | 57% | 1018.8 hPa | 0 mm | - | 237 W/m² | - |
| 1777355536 | 3.89° C | 90% | 1018.5 hPa | 0 mm | - | 83 W/m² | - |
| 1777354936 | 3.89° C | 91% | 1018.5 hPa | 0 mm | - | 93 W/m² | - |
| 1777353140 | 1.67° C | 91% | 1018.3 hPa | 0 mm | - | 49 W/m² | - |
| 1777347136 | 1.67° C | 91% | 1018.5 hPa | 0 mm | - | 0 W/m² | - |
| 1777339336 | 2.78° C | 87% | 1018.8 hPa | 0 mm | - | 0 W/m² | - |
| 1777335156 | 3.89° C | 84% | 1018.8 hPa | 0 mm | - | 0 W/m² | - |
| 1777333359 | 5° C | 80% | 1019 hPa | 0 mm | - | 0 W/m² | - |
| 1777326737 | 6.11° C | 78% | 1018.8 hPa | 0 mm | - | 0 W/m² | - |
| 1777326137 | 6.67° C | 76% | 1018.8 hPa | 0 mm | - | 0 W/m² | - |
| 1777324337 | 7.22° C | 76% | 1018.7 hPa | 0 mm | - | 0 W/m² | - |
| 1777323137 | 8.33° C | 73% | 1019 hPa | 0 mm | - | 0 W/m² | - |
| 1777318937 | 10.56° C | 66% | 1019 hPa | 0 mm | - | 0 W/m² | - |
| 1777317137 | 11.67° C | 61% | 1018.9 hPa | 0 mm | - | 0 W/m² | - |
| 1777316540 | 12.22° C | 58% | 1019 hPa | 0 mm | - | 0 W/m² | - |
| 1777315937 | 12.78° C | 56% | 1019 hPa | 0 mm | - | 0 W/m² | - |
| 1777315337 | 12.78° C | 55% | 1018.9 hPa | 0 mm | - | 0 W/m² | - |
| 1777314737 | 13.33° C | 52% | 1019 hPa | 0 mm | - | 9 W/m² | - |
* Rain latest hour (hover to see other rain measurements)
** Current wind speed in m/s (hover to see current wind gust speed)